createdAt,value
2023-02-07T00:00:03.230Z,99.33
2023-02-07T00:02:05.935Z,99.48
2023-02-07T00:04:08.672Z,99.77
2023-02-07T00:06:13.773Z,99.24
2023-02-07T00:08:16.821Z,99.20
2023-02-07T00:10:19.559Z,98.73
2023-02-07T00:12:22.224Z,99.10
2023-02-07T00:14:26.223Z,98.39
2023-02-07T00:16:29.707Z,98.42
2023-02-07T00:18:32.738Z,98.37
2023-02-07T00:20:35.511Z,98.22
2023-02-07T00:22:38.181Z,97.05
2023-02-07T00:24:40.849Z,97.38
2023-02-07T00:26:44.027Z,96.89
2023-02-07T00:28:46.782Z,96.32
2023-02-07T00:30:51.410Z,96.02
2023-02-07T00:32:54.156Z,95.77
2023-02-07T00:34:56.749Z,96.38
2023-02-07T00:36:59.467Z,95.84
2023-02-07T00:39:05.430Z,96.15
2023-02-07T00:41:08.597Z,96.23
2023-02-07T00:43:16.457Z,97.77
2023-02-07T00:45:27.381Z,97.93
2023-02-07T00:47:31.404Z,97.81
2023-02-07T00:49:34.145Z,98.41
2023-02-07T00:51:36.811Z,98.68
2023-02-07T00:53:39.767Z,98.59
2023-02-07T00:55:42.428Z,98.93
2023-02-07T00:57:45.065Z,99.29
2023-02-07T00:59:48.874Z,99.37
2023-02-07T01:01:51.531Z,100.00
2023-02-07T01:03:55.721Z,100.00
2023-02-07T01:05:58.530Z,100.00
2023-02-07T01:08:01.194Z,100.00
2023-02-07T01:10:03.980Z,100.00
2023-02-07T01:12:07.455Z,100.00
2023-02-07T01:14:11.073Z,100.00
2023-02-07T01:16:20.952Z,100.00
2023-02-07T01:18:23.651Z,100.00
2023-02-07T01:20:29.904Z,100.00
2023-02-07T01:22:32.550Z,100.00
2023-02-07T01:24:35.497Z,100.00
2023-02-07T01:26:39.379Z,100.00
2023-02-07T01:28:42.052Z,100.00
2023-02-07T01:30:45.815Z,100.00
2023-02-07T01:32:48.546Z,100.00
2023-02-07T01:34:51.404Z,100.00
2023-02-07T01:36:55.358Z,100.00
2023-02-07T01:38:58.557Z,100.00
2023-02-07T01:41:01.222Z,100.00
2023-02-07T01:43:03.896Z,100.00
2023-02-07T01:45:17.104Z,100.00
2023-02-07T01:47:23.053Z,100.00
2023-02-07T01:49:28.188Z,100.00
2023-02-07T01:51:32.571Z,100.00
2023-02-07T01:53:39.053Z,100.00
2023-02-07T01:55:42.695Z,100.00
2023-02-07T01:57:46.250Z,100.00
2023-02-07T01:59:51.554Z,100.00
2023-02-07T02:01:54.978Z,100.00
2023-02-07T02:03:58.135Z,100.00
2023-02-07T02:06:01.015Z,100.00
2023-02-07T02:08:04.030Z,100.00
2023-02-07T02:10:15.058Z,100.00
2023-02-07T02:12:31.568Z,100.00
2023-02-07T02:14:53.288Z,100.00
2023-02-07T02:17:05.385Z,100.00
2023-02-07T02:19:37.199Z,100.00
2023-02-07T02:22:08.033Z,100.00
2023-02-07T02:24:33.052Z,100.00
2023-02-07T02:26:50.693Z,100.00
2023-02-07T02:29:12.804Z,100.00
2023-02-07T02:31:41.820Z,100.00
2023-02-07T02:33:54.884Z,100.00
2023-02-07T02:36:02.487Z,100.00
2023-02-07T02:38:14.835Z,100.00
2023-02-07T02:40:24.141Z,100.00
2023-02-07T02:42:32.984Z,100.00
2023-02-07T02:44:43.033Z,100.00
2023-02-07T02:46:47.118Z,100.00
2023-02-07T02:48:52.251Z,100.00
2023-02-07T02:50:56.525Z,100.00
2023-02-07T02:52:59.210Z,100.00
2023-02-07T02:55:01.804Z,100.00
2023-02-07T02:57:35.711Z,100.00
2023-02-07T02:59:53.856Z,100.00
2023-02-07T03:02:07.424Z,100.00
2023-02-07T03:04:28.761Z,100.00
2023-02-07T03:06:43.604Z,100.00
2023-02-07T03:08:54.013Z,100.00
2023-02-07T03:11:01.191Z,100.00
2023-02-07T03:13:10.083Z,100.00
2023-02-07T03:15:18.339Z,100.00
2023-02-07T03:17:27.928Z,100.00
2023-02-07T03:19:36.827Z,100.00
2023-02-07T03:21:44.095Z,100.00
2023-02-07T03:23:48.732Z,100.00
2023-02-07T03:25:53.318Z,100.00
2023-02-07T03:27:57.534Z,100.00
2023-02-07T03:30:03.194Z,100.00
2023-02-07T03:32:08.959Z,100.00
2023-02-07T03:34:20.469Z,100.00
2023-02-07T03:36:29.857Z,100.00
2023-02-07T03:38:33.365Z,100.00
2023-02-07T03:40:41.220Z,100.00
2023-02-07T03:42:50.698Z,100.00
2023-02-07T03:44:56.882Z,100.00
2023-02-07T03:46:59.584Z,100.00
2023-02-07T03:49:02.173Z,100.00
2023-02-07T03:51:05.236Z,100.00
2023-02-07T03:53:09.548Z,100.00
2023-02-07T03:55:12.436Z,100.00
2023-02-07T03:57:15.236Z,100.00
2023-02-07T03:59:17.933Z,99.73
2023-02-07T04:01:20.633Z,99.56
2023-02-07T04:03:23.326Z,98.40
2023-02-07T04:05:26.149Z,96.99
2023-02-07T04:07:28.970Z,95.96
2023-02-07T04:09:33.140Z,95.70
2023-02-07T04:11:35.849Z,95.31
2023-02-07T04:13:38.656Z,94.92
2023-02-07T04:15:41.334Z,94.62
2023-02-07T04:17:44.036Z,94.97
2023-02-07T04:19:46.677Z,95.21
2023-02-07T04:21:49.665Z,94.94
2023-02-07T04:23:52.267Z,94.68
2023-02-07T04:25:56.308Z,94.68
2023-02-07T04:27:58.927Z,94.87
2023-02-07T04:30:01.575Z,95.15
2023-02-07T04:32:05.063Z,94.98
2023-02-07T04:34:07.726Z,94.97
2023-02-07T04:36:10.816Z,95.86
2023-02-07T04:38:13.413Z,96.04
2023-02-07T04:40:16.528Z,95.13
2023-02-07T04:42:20.536Z,94.43
2023-02-07T04:44:23.381Z,94.60
2023-02-07T04:46:28.012Z,94.22
2023-02-07T04:48:30.960Z,94.39
2023-02-07T04:50:33.835Z,95.34
2023-02-07T04:52:37.033Z,94.35
2023-02-07T04:54:39.868Z,94.47
2023-02-07T04:56:42.594Z,94.80
2023-02-07T04:58:46.669Z,94.83
2023-02-07T05:00:49.500Z,94.53
2023-02-07T05:02:52.190Z,94.46
2023-02-07T05:04:54.839Z,94.41
2023-02-07T05:06:57.587Z,95.35
2023-02-07T05:09:00.263Z,96.38
2023-02-07T05:11:03.685Z,96.13
2023-02-07T05:13:06.600Z,96.19
2023-02-07T05:15:11.468Z,95.40
2023-02-07T05:17:14.408Z,95.61
2023-02-07T05:19:17.181Z,95.91
2023-02-07T05:21:19.805Z,95.14
2023-02-07T05:23:22.722Z,94.69
2023-02-07T05:25:25.356Z,94.41
2023-02-07T05:27:28.127Z,94.00
2023-02-07T05:29:30.781Z,94.05
2023-02-07T05:31:54.507Z,94.26
2023-02-07T05:33:57.340Z,93.75
2023-02-07T05:36:01.804Z,93.48
2023-02-07T05:38:06.303Z,92.94
2023-02-07T05:40:09.819Z,92.36
2023-02-07T05:42:12.461Z,91.83
2023-02-07T05:44:15.130Z,91.86
2023-02-07T05:46:17.838Z,91.75
2023-02-07T05:48:21.952Z,91.29
2023-02-07T05:50:25.196Z,90.33
2023-02-07T05:52:27.856Z,90.17
2023-02-07T05:54:30.525Z,90.22
2023-02-07T05:56:33.165Z,89.74
2023-02-07T05:58:35.780Z,90.26
2023-02-07T06:00:38.549Z,90.58
2023-02-07T06:02:41.537Z,90.65
2023-02-07T06:04:45.621Z,90.67
2023-02-07T06:06:48.426Z,90.71
2023-02-07T06:08:51.088Z,90.54
2023-02-07T06:10:53.786Z,90.93
2023-02-07T06:12:56.616Z,90.86
2023-02-07T06:14:59.275Z,90.66
2023-02-07T06:17:01.997Z,90.10
2023-02-07T06:19:04.603Z,90.68
2023-02-07T06:21:08.602Z,90.43
2023-02-07T06:23:11.398Z,90.34
2023-02-07T06:25:14.119Z,89.79
2023-02-07T06:27:16.893Z,89.16
2023-02-07T06:29:19.738Z,89.30
2023-02-07T06:31:22.512Z,89.12
2023-02-07T06:33:25.389Z,89.18
2023-02-07T06:35:28.287Z,89.22
2023-02-07T06:37:32.304Z,89.62
2023-02-07T06:39:35.043Z,90.25
2023-02-07T06:41:37.688Z,91.20
2023-02-07T06:43:40.517Z,91.37
2023-02-07T06:45:43.172Z,91.45
2023-02-07T06:47:45.888Z,92.06
2023-02-07T06:49:48.816Z,91.48
2023-02-07T06:51:51.419Z,91.34
2023-02-07T06:53:55.435Z,91.29
2023-02-07T06:55:58.150Z,90.69
2023-02-07T06:58:00.828Z,90.69
2023-02-07T07:00:05.426Z,90.41
2023-02-07T07:02:08.139Z,90.69
2023-02-07T07:04:10.868Z,90.29
2023-02-07T07:06:13.696Z,89.71
2023-02-07T07:08:18.746Z,89.22
2023-02-07T07:10:23.080Z,89.94
2023-02-07T07:12:25.784Z,90.25
2023-02-07T07:14:28.449Z,90.86
2023-02-07T07:16:31.275Z,90.76
2023-02-07T07:18:33.926Z,90.38
2023-02-07T07:20:36.661Z,89.22
2023-02-07T07:22:39.401Z,88.60
2023-02-07T07:24:42.006Z,88.97
2023-02-07T07:26:49.895Z,89.23
2023-02-07T07:28:57.921Z,89.30
2023-02-07T07:31:05.686Z,89.51
2023-02-07T07:33:08.532Z,88.91
2023-02-07T07:35:11.675Z,88.20
2023-02-07T07:37:14.443Z,87.84
2023-02-07T07:39:17.739Z,88.16
2023-02-07T07:41:20.457Z,87.82
2023-02-07T07:43:24.628Z,86.93
2023-02-07T07:45:27.590Z,87.50
2023-02-07T07:47:30.277Z,87.13
2023-02-07T07:49:33.038Z,87.70
2023-02-07T07:51:35.882Z,87.07
2023-02-07T07:53:38.707Z,86.93
2023-02-07T07:55:41.389Z,86.58
2023-02-07T07:57:44.092Z,86.71
2023-02-07T07:59:48.656Z,86.51
2023-02-07T08:01:52.010Z,85.53
2023-02-07T08:03:54.684Z,84.81
2023-02-07T08:05:57.385Z,82.85
2023-02-07T08:08:00.238Z,78.35
2023-02-07T08:10:02.967Z,76.21
2023-02-07T08:12:06.361Z,76.66
2023-02-07T08:14:09.153Z,75.65
2023-02-07T08:16:13.530Z,74.72
2023-02-07T08:18:16.307Z,77.12
2023-02-07T08:20:19.205Z,76.71
2023-02-07T08:22:21.942Z,76.67
2023-02-07T08:24:24.753Z,77.31
2023-02-07T08:26:27.441Z,77.32
2023-02-07T08:28:30.880Z,76.00
2023-02-07T08:30:33.573Z,75.02
2023-02-07T08:32:39.544Z,74.90
2023-02-07T08:34:42.183Z,73.99
2023-02-07T08:36:44.916Z,74.08
2023-02-07T08:38:47.652Z,73.01
2023-02-07T08:40:51.025Z,72.66
2023-02-07T08:42:53.863Z,73.45
2023-02-07T08:44:56.839Z,73.77
2023-02-07T08:46:59.672Z,71.88
2023-02-07T08:49:03.684Z,72.19
2023-02-07T08:51:07.749Z,73.90
2023-02-07T08:53:11.001Z,72.34
2023-02-07T08:55:13.659Z,73.01
2023-02-07T08:57:17.198Z,73.54
2023-02-07T08:59:19.926Z,75.15
2023-02-07T09:01:22.971Z,74.00
2023-02-07T09:03:25.657Z,73.94
2023-02-07T09:05:33.018Z,72.13
2023-02-07T09:07:35.900Z,70.52
2023-02-07T09:09:38.870Z,68.24
2023-02-07T09:11:41.667Z,66.14
2023-02-07T09:13:46.396Z,65.25
2023-02-07T09:15:54.566Z,63.29
2023-02-07T09:17:57.314Z,59.39
2023-02-07T09:19:59.962Z,61.29
2023-02-07T09:22:04.377Z,58.38
2023-02-07T09:24:07.528Z,62.14
2023-02-07T09:26:11.810Z,60.60
2023-02-07T09:28:15.103Z,58.90
2023-02-07T09:30:18.581Z,58.00
2023-02-07T09:32:21.247Z,58.60
2023-02-07T09:34:24.482Z,55.73
2023-02-07T09:36:28.516Z,57.49
2023-02-07T09:38:33.078Z,60.66
2023-02-07T09:40:37.206Z,59.10
2023-02-07T09:42:48.904Z,59.01
2023-02-07T09:45:00.061Z,60.30
2023-02-07T09:47:05.907Z,57.52
2023-02-07T09:49:16.796Z,57.48
2023-02-07T09:51:22.498Z,57.45
2023-02-07T09:53:29.314Z,55.28
2023-02-07T09:55:43.398Z,58.05
2023-02-07T09:57:50.282Z,56.90
2023-02-07T09:59:59.292Z,56.55
2023-02-07T10:02:14.574Z,54.05
2023-02-07T10:04:30.595Z,57.74
2023-02-07T10:06:36.027Z,58.55
2023-02-07T10:08:41.274Z,59.67
2023-02-07T10:10:47.710Z,59.33
2023-02-07T10:13:09.631Z,59.31
2023-02-07T10:15:28.421Z,59.64
2023-02-07T10:17:37.390Z,57.46
2023-02-07T10:19:52.088Z,59.01
2023-02-07T10:22:07.798Z,58.39
2023-02-07T10:24:41.737Z,58.46
2023-02-07T10:26:50.888Z,60.27
2023-02-07T10:29:35.313Z,61.26
2023-02-07T10:31:39.975Z,61.21
2023-02-07T10:33:48.685Z,61.43
2023-02-07T10:35:53.169Z,62.02
2023-02-07T10:38:00.468Z,62.58
2023-02-07T10:40:06.974Z,62.86
2023-02-07T10:42:15.446Z,64.02
2023-02-07T10:44:20.585Z,63.75
2023-02-07T10:46:27.313Z,62.20
2023-02-07T10:48:30.089Z,61.11
2023-02-07T10:50:32.877Z,60.38
2023-02-07T10:52:42.895Z,59.25
2023-02-07T10:54:52.779Z,57.95
2023-02-07T10:57:02.154Z,57.67
2023-02-07T10:59:06.797Z,57.09
2023-02-07T11:01:19.585Z,58.82
2023-02-07T11:03:23.773Z,57.91
2023-02-07T11:05:32.466Z,58.81
2023-02-07T11:07:47.216Z,58.20
2023-02-07T11:09:50.972Z,58.68
2023-02-07T11:11:55.161Z,57.29
2023-02-07T11:14:04.689Z,57.68
2023-02-07T11:16:10.577Z,57.17
2023-02-07T11:18:27.820Z,55.81
2023-02-07T11:20:33.341Z,55.19
2023-02-07T11:22:36.270Z,55.67
2023-02-07T11:24:39.255Z,55.79
2023-02-07T11:26:58.478Z,54.15
2023-02-07T11:29:09.056Z,53.24
2023-02-07T11:31:15.748Z,53.88
2023-02-07T11:33:23.420Z,53.27
2023-02-07T11:35:26.174Z,57.01
2023-02-07T11:37:32.303Z,60.70
2023-02-07T11:39:35.088Z,61.76
2023-02-07T11:41:39.886Z,63.01
2023-02-07T11:43:53.646Z,62.65
2023-02-07T11:46:02.359Z,60.54
2023-02-07T11:48:07.478Z,61.09
2023-02-07T11:50:19.629Z,61.23
2023-02-07T11:52:23.319Z,62.41
2023-02-07T11:54:27.136Z,63.58
2023-02-07T11:56:34.155Z,63.61
2023-02-07T11:58:37.879Z,62.64
2023-02-07T12:00:40.836Z,63.06
2023-02-07T12:02:50.242Z,63.03
2023-02-07T12:04:56.649Z,62.79
2023-02-07T12:07:03.987Z,64.09
2023-02-07T12:09:21.650Z,63.52
2023-02-07T12:11:28.044Z,63.19
2023-02-07T12:13:35.510Z,63.05
2023-02-07T12:15:43.491Z,62.01
2023-02-07T12:17:57.184Z,61.61
2023-02-07T12:20:09.855Z,61.46
2023-02-07T12:22:18.950Z,61.72
2023-02-07T12:24:26.137Z,61.42
2023-02-07T12:26:33.747Z,61.66
2023-02-07T12:28:44.981Z,60.32
2023-02-07T12:30:54.856Z,60.73
2023-02-07T12:33:05.092Z,60.19
2023-02-07T12:35:19.721Z,59.71
2023-02-07T12:37:27.551Z,60.67
2023-02-07T12:39:36.184Z,60.58
2023-02-07T12:41:45.401Z,61.06
2023-02-07T12:43:52.462Z,59.98
2023-02-07T12:46:19.393Z,59.92
2023-02-07T12:48:32.003Z,59.16
2023-02-07T12:50:54.375Z,59.16
2023-02-07T12:53:10.751Z,58.54
2023-02-07T12:55:26.174Z,54.40
2023-02-07T12:57:37.811Z,53.31
2023-02-07T12:59:52.107Z,55.01
2023-02-07T13:02:05.063Z,54.86
2023-02-07T13:04:30.963Z,51.77
2023-02-07T13:06:41.372Z,50.00
2023-02-07T13:08:54.162Z,50.12
2023-02-07T13:11:09.123Z,48.55
2023-02-07T13:13:23.384Z,50.70
2023-02-07T13:15:35.428Z,51.09
2023-02-07T13:17:48.322Z,51.62
2023-02-07T13:19:59.012Z,52.69
2023-02-07T13:22:08.810Z,49.75
2023-02-07T13:24:16.240Z,49.83
2023-02-07T13:26:21.314Z,51.99
2023-02-07T13:28:27.363Z,50.55
2023-02-07T13:30:31.447Z,50.85
2023-02-07T13:32:34.195Z,51.33
2023-02-07T13:34:41.283Z,50.42
2023-02-07T13:36:45.744Z,51.34
2023-02-07T13:39:03.370Z,51.50
2023-02-07T13:41:12.990Z,50.21
2023-02-07T13:43:24.060Z,50.36
2023-02-07T13:45:37.142Z,49.75
2023-02-07T13:48:02.494Z,49.56
2023-02-07T13:50:15.395Z,43.67
2023-02-07T13:52:27.348Z,43.23
2023-02-07T13:54:41.813Z,43.32
2023-02-07T13:57:14.805Z,42.08
2023-02-07T13:59:42.683Z,42.29
2023-02-07T14:01:54.220Z,42.13
2023-02-07T14:04:03.906Z,42.68
2023-02-07T14:06:22.169Z,42.68
2023-02-07T14:08:25.747Z,41.58
2023-02-07T14:10:51.534Z,42.12
2023-02-07T14:12:54.206Z,42.55
2023-02-07T14:15:17.820Z,42.93
2023-02-07T14:17:50.211Z,42.75
2023-02-07T14:19:55.342Z,42.33
2023-02-07T14:22:16.217Z,43.90
2023-02-07T14:24:32.552Z,44.23
2023-02-07T14:26:58.365Z,44.18
2023-02-07T14:29:34.557Z,43.81
2023-02-07T14:31:37.324Z,41.81
2023-02-07T14:33:40.700Z,41.13
2023-02-07T14:36:04.806Z,41.10
2023-02-07T14:38:22.238Z,40.64
2023-02-07T14:40:31.644Z,40.67
2023-02-07T14:42:37.429Z,41.49
2023-02-07T14:44:42.861Z,42.46
2023-02-07T14:46:51.760Z,42.63
2023-02-07T14:48:59.927Z,42.51
2023-02-07T14:51:03.548Z,42.90
2023-02-07T14:53:07.160Z,43.75
2023-02-07T14:55:18.587Z,43.66
2023-02-07T14:57:30.337Z,43.61
2023-02-07T14:59:40.069Z,43.93
2023-02-07T15:01:42.977Z,43.99
2023-02-07T15:03:45.687Z,44.18
2023-02-07T15:05:51.702Z,44.48
2023-02-07T15:08:08.506Z,44.44
2023-02-07T15:10:15.783Z,45.41
2023-02-07T15:12:27.208Z,45.25
2023-02-07T15:14:34.286Z,45.61
2023-02-07T15:16:41.685Z,49.15
2023-02-07T15:18:48.855Z,51.77
2023-02-07T15:20:54.176Z,52.84
2023-02-07T15:22:58.305Z,53.65
2023-02-07T15:25:02.203Z,52.39
2023-02-07T15:27:06.874Z,47.44
2023-02-07T15:29:21.920Z,46.88
2023-02-07T15:31:24.828Z,46.94
2023-02-07T15:33:36.524Z,48.39
2023-02-07T15:35:39.735Z,50.05
2023-02-07T15:37:42.463Z,49.13
2023-02-07T15:39:45.232Z,48.91
2023-02-07T15:41:49.549Z,48.40
2023-02-07T15:43:58.772Z,48.41
2023-02-07T15:46:07.620Z,48.18
2023-02-07T15:48:19.739Z,48.74
2023-02-07T15:50:25.188Z,49.74
2023-02-07T15:52:32.884Z,49.07
2023-02-07T15:54:40.073Z,49.58
2023-02-07T15:56:46.611Z,49.59
2023-02-07T15:58:50.144Z,50.13
2023-02-07T16:00:53.859Z,51.28
2023-02-07T16:03:00.270Z,52.30
2023-02-07T16:05:09.730Z,51.69
2023-02-07T16:07:14.630Z,52.99
2023-02-07T16:09:36.476Z,52.33
2023-02-07T16:11:41.104Z,52.45
2023-02-07T16:13:50.593Z,52.81
2023-02-07T16:15:56.252Z,51.70
2023-02-07T16:17:59.948Z,52.12
2023-02-07T16:20:02.642Z,52.17
2023-02-07T16:22:09.269Z,52.05
2023-02-07T16:24:18.112Z,52.54
2023-02-07T16:26:27.621Z,52.74
2023-02-07T16:28:30.414Z,53.24
2023-02-07T16:30:37.152Z,53.53
2023-02-07T16:32:39.935Z,52.84
2023-02-07T16:34:58.568Z,52.67
2023-02-07T16:37:02.382Z,52.71
2023-02-07T16:39:05.321Z,52.65
2023-02-07T16:41:22.700Z,53.23
2023-02-07T16:43:36.762Z,53.03
2023-02-07T16:45:40.204Z,53.70
2023-02-07T16:47:43.100Z,54.01
2023-02-07T16:49:46.734Z,54.15
2023-02-07T16:51:49.674Z,54.10
2023-02-07T16:53:52.728Z,53.85
2023-02-07T16:55:58.213Z,54.30
2023-02-07T16:58:05.333Z,54.74
2023-02-07T17:00:10.010Z,54.99
2023-02-07T17:02:15.557Z,55.99
2023-02-07T17:04:18.426Z,56.07
2023-02-07T17:06:23.011Z,56.59
2023-02-07T17:08:30.011Z,56.83
2023-02-07T17:10:33.611Z,57.12
2023-02-07T17:12:36.459Z,57.38
2023-02-07T17:14:40.437Z,57.86
2023-02-07T17:16:43.334Z,58.08
2023-02-07T17:18:45.992Z,58.37
2023-02-07T17:20:48.901Z,58.67
2023-02-07T17:22:51.958Z,59.45
2023-02-07T17:24:54.713Z,59.41
2023-02-07T17:26:57.452Z,59.56
2023-02-07T17:29:00.107Z,60.25
2023-02-07T17:31:04.130Z,60.72
2023-02-07T17:33:07.502Z,61.57
2023-02-07T17:35:10.523Z,62.21
2023-02-07T17:37:13.252Z,62.87
2023-02-07T17:39:17.399Z,63.29
2023-02-07T17:41:21.355Z,64.15
2023-02-07T17:43:24.064Z,64.72
2023-02-07T17:45:27.968Z,65.20
2023-02-07T17:47:32.032Z,65.81
2023-02-07T17:49:34.707Z,65.94
2023-02-07T17:51:37.330Z,66.92
2023-02-07T17:53:39.931Z,67.05
2023-02-07T17:55:42.544Z,66.83
2023-02-07T17:57:45.310Z,66.95
2023-02-07T17:59:47.885Z,66.75
2023-02-07T18:01:50.679Z,66.76
2023-02-07T18:03:55.790Z,66.49
2023-02-07T18:05:58.548Z,66.76
2023-02-07T18:08:01.457Z,67.27
2023-02-07T18:10:06.577Z,66.87
2023-02-07T18:12:09.249Z,66.99
2023-02-07T18:14:12.051Z,66.64
2023-02-07T18:16:16.034Z,67.53
2023-02-07T18:18:18.781Z,67.21
2023-02-07T18:20:25.113Z,67.52
2023-02-07T18:22:27.903Z,67.48
2023-02-07T18:24:30.964Z,67.17
2023-02-07T18:26:33.815Z,67.31
2023-02-07T18:28:36.534Z,67.54
2023-02-07T18:30:40.559Z,67.41
2023-02-07T18:32:43.601Z,67.32
2023-02-07T18:34:46.228Z,67.90
2023-02-07T18:36:50.316Z,67.51
2023-02-07T18:38:53.340Z,67.62
2023-02-07T18:40:56.022Z,68.11
2023-02-07T18:42:58.811Z,68.02
2023-02-07T18:45:01.592Z,67.29
2023-02-07T18:47:04.368Z,67.31
2023-02-07T18:49:07.060Z,66.75
2023-02-07T18:51:11.458Z,67.02
2023-02-07T18:53:15.390Z,66.86
2023-02-07T18:55:18.514Z,67.10
2023-02-07T18:57:21.153Z,66.90
2023-02-07T18:59:25.236Z,67.44
2023-02-07T19:01:30.456Z,67.22
2023-02-07T19:03:33.840Z,66.82
2023-02-07T19:05:37.460Z,66.73
2023-02-07T19:07:40.332Z,67.07
2023-02-07T19:09:44.508Z,66.73
2023-02-07T19:11:49.893Z,66.86
2023-02-07T19:13:52.573Z,66.43
2023-02-07T19:15:55.604Z,66.23
2023-02-07T19:17:58.226Z,66.44
2023-02-07T19:20:00.953Z,66.13
2023-02-07T19:22:03.977Z,66.43
2023-02-07T19:24:09.428Z,66.81
2023-02-07T19:26:13.535Z,66.55
2023-02-07T19:28:16.421Z,67.23
2023-02-07T19:30:19.133Z,67.79
2023-02-07T19:32:21.721Z,67.89
2023-02-07T19:34:24.405Z,68.07
2023-02-07T19:36:28.188Z,68.41
2023-02-07T19:38:30.763Z,68.70
2023-02-07T19:40:33.405Z,68.85
2023-02-07T19:42:37.416Z,68.88
2023-02-07T19:44:40.082Z,69.04
2023-02-07T19:46:44.082Z,69.36
2023-02-07T19:48:48.125Z,69.28
2023-02-07T19:50:58.811Z,69.47
2023-02-07T19:53:01.410Z,69.61
2023-02-07T19:55:04.345Z,69.56
2023-02-07T19:57:07.005Z,69.61
2023-02-07T19:59:11.390Z,69.52
2023-02-07T20:01:15.010Z,69.43
2023-02-07T20:03:17.621Z,69.65
2023-02-07T20:05:20.271Z,69.79
2023-02-07T20:07:23.223Z,70.01
2023-02-07T20:09:25.902Z,69.94
2023-02-07T20:11:29.130Z,69.93
2023-02-07T20:13:33.728Z,69.87
2023-02-07T20:15:40.359Z,70.30
2023-02-07T20:17:43.641Z,70.22
2023-02-07T20:19:46.309Z,69.67
2023-02-07T20:21:48.917Z,70.18
2023-02-07T20:23:52.982Z,69.88
2023-02-07T20:25:55.552Z,70.00
2023-02-07T20:27:58.256Z,70.03
2023-02-07T20:30:00.832Z,70.67
2023-02-07T20:32:04.804Z,69.88
2023-02-07T20:34:08.115Z,70.03
2023-02-07T20:36:11.995Z,69.69
2023-02-07T20:38:14.678Z,69.58
2023-02-07T20:40:17.428Z,69.31
2023-02-07T20:42:20.166Z,69.35
2023-02-07T20:44:26.421Z,69.40
2023-02-07T20:46:30.476Z,69.63
2023-02-07T20:48:34.568Z,69.60
2023-02-07T20:50:37.479Z,69.36
2023-02-07T20:52:40.332Z,69.88
2023-02-07T20:54:43.171Z,70.14
2023-02-07T20:56:46.008Z,69.95
2023-02-07T20:58:48.736Z,69.96
2023-02-07T21:00:51.522Z,69.96
2023-02-07T21:02:54.098Z,70.78
2023-02-07T21:04:58.150Z,70.51
2023-02-07T21:07:01.005Z,70.64
2023-02-07T21:09:06.303Z,70.22
2023-02-07T21:11:09.911Z,70.83
2023-02-07T21:13:13.672Z,70.89
2023-02-07T21:15:16.343Z,70.59
2023-02-07T21:17:19.008Z,70.51
2023-02-07T21:19:22.548Z,70.85
2023-02-07T21:21:26.984Z,71.27
2023-02-07T21:23:29.612Z,71.10
2023-02-07T21:25:32.751Z,70.94
2023-02-07T21:27:35.459Z,70.48
2023-02-07T21:29:38.687Z,70.28
2023-02-07T21:31:41.666Z,70.34
2023-02-07T21:33:45.130Z,70.28
2023-02-07T21:35:48.632Z,70.93
2023-02-07T21:37:52.631Z,71.26
2023-02-07T21:39:55.802Z,71.12
2023-02-07T21:41:58.886Z,72.26
2023-02-07T21:44:02.313Z,72.03
2023-02-07T21:46:06.778Z,71.55
2023-02-07T21:48:09.516Z,72.01
2023-02-07T21:50:12.268Z,72.57
2023-02-07T21:52:16.306Z,73.46
2023-02-07T21:54:20.485Z,73.09
2023-02-07T21:56:25.913Z,73.94
2023-02-07T21:58:28.707Z,72.90
2023-02-07T22:00:31.382Z,73.16
2023-02-07T22:02:34.403Z,72.58
2023-02-07T22:04:37.084Z,71.47
2023-02-07T22:06:42.166Z,71.32
2023-02-07T22:08:48.377Z,70.71
2023-02-07T22:10:52.361Z,70.59
2023-02-07T22:12:55.064Z,70.83
2023-02-07T22:14:57.655Z,70.79
2023-02-07T22:17:00.363Z,69.80
2023-02-07T22:19:05.242Z,69.45
2023-02-07T22:21:10.279Z,70.22
2023-02-07T22:23:13.032Z,70.60
2023-02-07T22:25:15.928Z,70.56
2023-02-07T22:27:19.922Z,70.95
2023-02-07T22:29:22.542Z,71.46
2023-02-07T22:31:27.355Z,71.62
2023-02-07T22:33:30.061Z,71.69
2023-02-07T22:35:36.743Z,72.05
2023-02-07T22:37:39.385Z,72.62
2023-02-07T22:39:41.996Z,72.67
2023-02-07T22:41:44.907Z,72.68
2023-02-07T22:43:50.691Z,72.56
2023-02-07T22:45:53.321Z,72.34
2023-02-07T22:47:56.117Z,73.03
2023-02-07T22:49:58.698Z,72.93
2023-02-07T22:52:01.348Z,72.63
2023-02-07T22:54:06.877Z,72.55
2023-02-07T22:56:10.158Z,72.90
2023-02-07T22:58:15.517Z,72.14
2023-02-07T23:00:20.534Z,72.11
2023-02-07T23:02:23.182Z,71.61
2023-02-07T23:04:25.912Z,70.79
2023-02-07T23:06:28.703Z,71.26
2023-02-07T23:08:31.381Z,70.88
2023-02-07T23:10:33.982Z,70.39
2023-02-07T23:12:36.598Z,70.14
2023-02-07T23:14:39.487Z,69.93
2023-02-07T23:16:43.873Z,68.68
2023-02-07T23:18:46.645Z,68.61
2023-02-07T23:20:49.243Z,68.27
2023-02-07T23:22:52.076Z,67.98
2023-02-07T23:24:56.153Z,67.90
2023-02-07T23:26:58.922Z,67.63
2023-02-07T23:29:01.566Z,66.91
2023-02-07T23:31:05.802Z,67.23
2023-02-07T23:33:11.568Z,67.49
2023-02-07T23:35:14.213Z,68.01
2023-02-07T23:37:16.928Z,69.01
2023-02-07T23:39:19.989Z,69.56
2023-02-07T23:41:22.940Z,69.68
2023-02-07T23:43:26.462Z,68.88
2023-02-07T23:45:29.148Z,68.47
2023-02-07T23:47:31.782Z,68.37
2023-02-07T23:49:35.890Z,69.72
2023-02-07T23:51:39.410Z,69.89
2023-02-07T23:53:42.990Z,68.54
2023-02-07T23:55:45.589Z,67.33
2023-02-07T23:57:48.531Z,68.13
2023-02-07T23:59:51.168Z,67.33
